createdAt,value
2018-04-10T00:00:18.203Z,65.30
2018-04-10T00:02:45.973Z,65.30
2018-04-10T00:05:13.562Z,65.50
2018-04-10T00:07:41.145Z,65.09
2018-04-10T00:12:59.715Z,64.59
2018-04-10T00:15:27.248Z,64.37
2018-04-10T00:17:54.788Z,65.03
2018-04-10T00:20:22.352Z,66.45
2018-04-10T00:22:49.888Z,65.30
2018-04-10T00:25:17.435Z,64.93
2018-04-10T00:27:44.996Z,64.89
2018-04-10T00:30:12.541Z,64.97
2018-04-10T00:32:40.111Z,65.86
2018-04-10T00:35:07.683Z,65.83
2018-04-10T00:37:35.214Z,65.93
2018-04-10T00:40:02.806Z,65.94
2018-04-10T00:42:32.053Z,65.96
2018-04-10T00:44:59.587Z,66.18
2018-04-10T00:47:27.205Z,66.06
2018-04-10T00:49:54.749Z,66.88
2018-04-10T00:52:22.781Z,66.01
2018-04-10T00:54:50.322Z,66.61
2018-04-10T00:57:17.872Z,65.45
2018-04-10T00:59:45.456Z,65.49
2018-04-10T01:02:13.086Z,65.03
2018-04-10T01:04:40.629Z,64.82
2018-04-10T01:07:08.214Z,64.00
2018-04-10T01:09:35.749Z,64.00
2018-04-10T01:12:03.344Z,63.58
2018-04-10T01:14:30.884Z,63.72
2018-04-10T01:16:59.518Z,63.66
2018-04-10T01:19:27.148Z,64.34
2018-04-10T01:21:54.763Z,65.12
2018-04-10T01:24:23.504Z,65.46
2018-04-10T01:26:51.058Z,65.95
2018-04-10T01:29:18.607Z,66.30
2018-04-10T01:31:46.135Z,67.25
2018-04-10T01:34:13.786Z,67.38
2018-04-10T01:36:41.332Z,67.59
2018-04-10T01:39:09.152Z,67.31
2018-04-10T01:41:37.553Z,67.08
2018-04-10T01:44:05.111Z,66.40
2018-04-10T01:46:32.857Z,67.30
2018-04-10T01:49:00.414Z,66.68
2018-04-10T01:51:27.964Z,66.60
2018-04-10T01:53:55.520Z,66.98
2018-04-10T01:56:23.057Z,67.19
2018-04-10T01:58:50.668Z,67.51
2018-04-10T02:01:18.311Z,67.65
2018-04-10T02:03:46.244Z,67.90
2018-04-10T02:06:13.762Z,68.48
2018-04-10T02:14:24.847Z,69.07
2018-04-10T02:16:52.701Z,69.46
2018-04-10T02:19:20.278Z,69.76
2018-04-10T02:21:47.874Z,69.73
2018-04-10T02:24:15.460Z,70.37
2018-04-10T02:26:43.920Z,70.48
2018-04-10T02:29:11.465Z,70.34
2018-04-10T02:31:39.029Z,70.55
2018-04-10T02:34:06.571Z,70.84
2018-04-10T02:36:36.163Z,70.46
2018-04-10T02:39:04.220Z,70.30
2018-04-10T02:41:31.767Z,70.71
2018-04-10T02:44:11.420Z,70.94
2018-04-10T02:46:38.961Z,71.26
2018-04-10T02:49:07.050Z,70.90
2018-04-10T02:51:37.271Z,71.00
2018-04-10T02:54:05.400Z,71.18
2018-04-10T02:56:33.106Z,71.07
2018-04-10T02:59:00.639Z,71.02
2018-04-10T03:01:29.120Z,71.53
2018-04-10T03:03:56.718Z,71.51
2018-04-10T03:06:24.263Z,72.29
2018-04-10T03:08:51.810Z,72.49
2018-04-10T03:11:19.415Z,72.60
2018-04-10T03:13:46.975Z,72.38
2018-04-10T03:16:14.516Z,72.40
2018-04-10T03:18:42.075Z,73.26
2018-04-10T03:21:10.156Z,73.11
2018-04-10T03:23:39.510Z,73.47
2018-04-10T03:26:07.690Z,73.69
2018-04-10T03:28:35.591Z,73.53
2018-04-10T03:31:03.136Z,73.79
2018-04-10T03:33:30.717Z,73.82
2018-04-10T03:35:58.269Z,74.55
2018-04-10T03:38:25.832Z,74.65
2018-04-10T03:43:44.014Z,74.72
2018-04-10T03:46:11.772Z,74.64
2018-04-10T03:48:41.877Z,75.16
2018-04-10T03:51:09.901Z,75.27
2018-04-10T03:53:50.136Z,75.28
2018-04-10T03:56:17.710Z,75.46
2018-04-10T03:58:45.250Z,75.44
2018-04-10T04:01:12.961Z,75.88
2018-04-10T04:03:40.505Z,76.33
2018-04-10T04:06:08.112Z,76.67
2018-04-10T04:08:36.584Z,77.20
2018-04-10T04:11:04.280Z,77.40
2018-04-10T04:13:31.835Z,77.28
2018-04-10T04:15:59.814Z,77.26
2018-04-10T04:18:39.484Z,76.55
2018-04-10T04:21:18.746Z,75.92
2018-04-10T04:23:46.287Z,76.14
2018-04-10T04:26:13.849Z,75.74
2018-04-10T04:28:41.429Z,75.71
2018-04-10T04:31:09.117Z,75.85
2018-04-10T04:33:37.016Z,76.39
2018-04-10T04:36:04.850Z,76.16
2018-04-10T04:38:33.661Z,77.03
2018-04-10T04:41:01.238Z,76.28
2018-04-10T04:43:29.226Z,75.83
2018-04-10T04:45:56.989Z,76.38
2018-04-10T04:48:24.556Z,76.56
2018-04-10T04:50:52.121Z,76.48
2018-04-10T04:53:19.667Z,76.68
2018-04-10T04:55:47.232Z,76.40
2018-04-10T04:58:14.786Z,76.39
2018-04-10T05:00:42.341Z,76.39
2018-04-10T05:03:10.488Z,76.37
2018-04-10T05:05:38.220Z,76.32
2018-04-10T05:08:05.765Z,76.13
2018-04-10T05:10:33.331Z,76.05
2018-04-10T05:13:00.879Z,76.06
2018-04-10T05:15:28.586Z,75.81
2018-04-10T05:17:56.144Z,75.35
2018-04-10T05:20:23.744Z,75.35
2018-04-10T05:22:51.283Z,75.29
2018-04-10T05:25:18.811Z,75.13
2018-04-10T05:27:47.761Z,75.02
2018-04-10T05:30:15.453Z,75.01
2018-04-10T05:32:43.956Z,75.15
2018-04-10T05:35:11.515Z,75.21
2018-04-10T05:37:39.048Z,75.43
2018-04-10T05:40:06.614Z,75.15
2018-04-10T05:42:36.509Z,74.77
2018-04-10T05:45:04.184Z,74.65
2018-04-10T05:47:31.699Z,73.67
2018-04-10T05:49:59.211Z,73.37
2018-04-10T05:52:27.223Z,72.55
2018-04-10T05:54:54.866Z,71.83
2018-04-10T05:57:22.419Z,71.25
2018-04-10T05:59:50.021Z,70.87
2018-04-10T06:02:17.591Z,69.73
2018-04-10T06:04:46.814Z,68.48
2018-04-10T06:07:14.395Z,68.34
2018-04-10T06:09:41.980Z,68.41
2018-04-10T06:12:10.546Z,68.84
2018-04-10T06:14:38.353Z,68.85
2018-04-10T06:17:06.296Z,68.52
2018-04-10T06:19:33.872Z,67.99
2018-04-10T06:22:01.449Z,67.44
2018-04-10T06:24:30.180Z,67.53
2018-04-10T06:26:58.581Z,67.53
2018-04-10T06:29:26.132Z,67.65
2018-04-10T06:31:54.004Z,67.25
2018-04-10T06:34:23.431Z,67.00
2018-04-10T06:36:51.478Z,67.35
2018-04-10T06:39:19.061Z,67.34
2018-04-10T06:41:48.807Z,67.69
2018-04-10T06:44:16.364Z,68.20
2018-04-10T06:46:44.526Z,68.60
2018-04-10T06:49:12.449Z,68.91
2018-04-10T06:51:45.089Z,69.19
2018-04-10T06:54:13.488Z,68.41
2018-04-10T06:56:43.966Z,68.49
2018-04-10T06:59:11.610Z,66.96
2018-04-10T07:01:39.218Z,66.48
2018-04-10T07:04:06.772Z,66.06
2018-04-10T07:06:35.667Z,65.85
2018-04-10T07:09:03.390Z,65.25
2018-04-10T07:11:30.940Z,66.55
2018-04-10T07:13:58.462Z,64.61
2018-04-10T07:16:28.100Z,64.89
2018-04-10T07:18:55.631Z,63.31
2018-04-10T07:21:23.273Z,63.80
2018-04-10T07:23:50.819Z,62.30
2018-04-10T07:26:18.413Z,63.49
2018-04-10T07:28:47.073Z,62.27
2018-04-10T07:31:15.095Z,62.55
2018-04-10T07:33:42.815Z,61.95
2018-04-10T07:36:10.370Z,62.50
2018-04-10T07:38:37.889Z,57.74
2018-04-10T07:41:05.518Z,55.44
2018-04-10T07:43:33.213Z,55.00
2018-04-10T07:46:00.815Z,54.57
2018-04-10T07:48:30.144Z,53.03
2018-04-10T07:50:57.686Z,54.08
2018-04-10T07:53:25.426Z,51.94
2018-04-10T07:55:54.387Z,50.80
2018-04-10T07:58:21.934Z,50.59
2018-04-10T08:00:49.855Z,49.97
2018-04-10T08:03:17.441Z,49.95
2018-04-10T08:05:46.253Z,49.68
2018-04-10T08:08:13.805Z,50.01
2018-04-10T08:10:41.376Z,49.64
2018-04-10T08:13:09.088Z,49.65
2018-04-10T08:15:36.687Z,51.26
2018-04-10T08:18:04.899Z,48.28
2018-04-10T08:20:33.293Z,48.03
2018-04-10T08:23:00.868Z,47.36
2018-04-10T08:25:28.835Z,47.52
2018-04-10T08:27:56.375Z,47.38
2018-04-10T08:30:23.928Z,46.73
2018-04-10T08:32:51.475Z,45.38
2018-04-10T08:35:19.005Z,45.89
2018-04-10T08:37:46.547Z,46.28
2018-04-10T08:40:14.019Z,45.51
2018-04-10T08:42:41.555Z,44.41
2018-04-10T08:45:09.140Z,42.61
2018-04-10T08:47:36.709Z,42.69
2018-04-10T08:50:04.383Z,42.10
2018-04-10T08:52:31.969Z,42.16
2018-04-10T08:54:59.516Z,41.89
2018-04-10T08:57:27.343Z,42.30
2018-04-10T08:59:54.971Z,42.25
2018-04-10T09:02:22.529Z,44.39
2018-04-10T09:04:50.079Z,42.27
2018-04-10T09:07:17.602Z,41.96
2018-04-10T09:09:45.143Z,41.86
2018-04-10T09:12:12.805Z,41.34
2018-04-10T09:14:40.339Z,39.92
2018-04-10T09:17:07.814Z,38.96
2018-04-10T09:19:35.942Z,39.53
2018-04-10T09:22:03.485Z,38.89
2018-04-10T09:24:31.072Z,39.51
2018-04-10T09:26:58.609Z,38.68
2018-04-10T09:29:26.185Z,39.96
2018-04-10T09:31:53.762Z,40.08
2018-04-10T09:34:25.122Z,39.45
2018-04-10T09:36:55.460Z,41.13
2018-04-10T09:39:22.989Z,37.58
2018-04-10T09:41:50.519Z,37.34
2018-04-10T09:44:18.077Z,37.41
2018-04-10T09:46:45.614Z,37.38
2018-04-10T09:49:13.161Z,37.59
2018-04-10T09:51:41.231Z,35.55
2018-04-10T09:54:08.804Z,35.56
2018-04-10T09:56:37.475Z,34.28
2018-04-10T09:59:05.144Z,34.46
2018-04-10T10:01:33.225Z,35.63
2018-04-10T10:04:01.002Z,35.73
2018-04-10T10:06:30.213Z,36.83
2018-04-10T10:08:57.940Z,35.42
2018-04-10T10:11:25.949Z,34.53
2018-04-10T10:13:56.308Z,34.49
2018-04-10T10:16:24.092Z,33.34
2018-04-10T10:18:51.627Z,34.80
2018-04-10T10:21:19.236Z,33.47
2018-04-10T10:23:49.001Z,34.03
2018-04-10T10:26:16.695Z,33.84
2018-04-10T10:28:47.380Z,35.24
2018-04-10T10:31:15.213Z,36.04
2018-04-10T10:33:46.495Z,34.63
2018-04-10T10:36:14.530Z,35.38
2018-04-10T10:38:46.804Z,37.77
2018-04-10T10:41:20.972Z,36.95
2018-04-10T10:43:51.015Z,35.02
2018-04-10T10:46:18.669Z,34.50
2018-04-10T10:48:46.223Z,35.46
2018-04-10T10:51:14.359Z,36.07
2018-04-10T10:53:48.645Z,35.35
2018-04-10T10:56:16.550Z,34.82
2018-04-10T10:58:44.420Z,33.14
2018-04-10T11:01:12.228Z,34.47
2018-04-10T11:03:40.522Z,35.08
2018-04-10T11:06:09.124Z,35.69
2018-04-10T11:08:36.697Z,34.88
2018-04-10T11:11:04.931Z,33.18
2018-04-10T11:13:32.796Z,35.06
2018-04-10T11:16:00.837Z,34.78
2018-04-10T11:18:29.608Z,34.88
2018-04-10T11:20:57.467Z,34.90
2018-04-10T11:23:25.465Z,35.30
2018-04-10T11:25:57.330Z,35.76
2018-04-10T11:28:24.904Z,36.18
2018-04-10T11:30:52.475Z,36.38
2018-04-10T11:33:20.327Z,35.96
2018-04-10T11:35:47.993Z,35.38
2018-04-10T11:38:15.562Z,35.69
2018-04-10T11:40:43.143Z,35.05
2018-04-10T11:43:11.257Z,36.43
2018-04-10T11:45:38.817Z,37.21
2018-04-10T11:48:06.349Z,35.77
2018-04-10T11:50:33.908Z,36.01
2018-04-10T11:53:01.484Z,36.60
2018-04-10T11:55:29.308Z,33.52
2018-04-10T11:57:56.934Z,32.35
2018-04-10T12:00:24.661Z,33.71
2018-04-10T12:02:52.198Z,33.07
2018-04-10T12:05:19.947Z,32.87
2018-04-10T12:07:48.133Z,33.63
2018-04-10T12:10:16.063Z,35.74
2018-04-10T12:12:43.626Z,35.96
2018-04-10T12:15:11.732Z,34.96
2018-04-10T12:17:40.436Z,34.54
2018-04-10T12:20:08.316Z,35.29
2018-04-10T12:22:36.730Z,36.71
2018-04-10T12:25:04.567Z,35.78
2018-04-10T12:27:32.296Z,35.66
2018-04-10T12:29:59.868Z,34.82
2018-04-10T12:32:28.342Z,35.27
2018-04-10T12:34:55.909Z,36.12
2018-04-10T12:37:24.008Z,36.26
2018-04-10T12:39:53.132Z,36.55
2018-04-10T12:42:20.691Z,36.35
2018-04-10T12:44:48.288Z,36.47
2018-04-10T12:47:15.972Z,38.51
2018-04-10T12:49:45.776Z,35.64
2018-04-10T12:52:13.436Z,34.80
2018-04-10T12:54:41.021Z,35.51
2018-04-10T12:57:08.877Z,35.86
2018-04-10T12:59:36.681Z,35.63
2018-04-10T13:02:04.827Z,34.59
2018-04-10T13:04:33.632Z,33.95
2018-04-10T13:07:01.485Z,35.27
2018-04-10T13:09:29.115Z,35.06
2018-04-10T13:11:57.193Z,33.29
2018-04-10T13:14:24.838Z,33.72
2018-04-10T13:19:43.440Z,33.79
2018-04-10T13:22:11.023Z,32.42
2018-04-10T13:24:39.287Z,34.49
2018-04-10T13:27:07.285Z,33.74
2018-04-10T13:29:34.963Z,30.48
2018-04-10T13:32:02.530Z,31.01
2018-04-10T13:34:32.273Z,31.04
2018-04-10T13:37:00.040Z,30.79
2018-04-10T13:39:27.736Z,30.43
2018-04-10T13:41:55.264Z,31.72
2018-04-10T13:44:22.829Z,31.87
2018-04-10T13:46:50.395Z,31.10
2018-04-10T13:49:18.960Z,30.92
2018-04-10T13:51:46.603Z,32.08
2018-04-10T13:54:14.241Z,30.57
2018-04-10T13:56:41.744Z,32.79
2018-04-10T13:59:09.284Z,32.96
2018-04-10T14:01:39.799Z,32.26
2018-04-10T14:04:09.153Z,32.46
2018-04-10T14:06:39.177Z,33.95
2018-04-10T14:09:07.587Z,32.83
2018-04-10T14:11:36.939Z,32.19
2018-04-10T14:14:04.510Z,33.19
2018-04-10T14:16:34.436Z,32.51
2018-04-10T14:19:02.115Z,33.18
2018-04-10T14:21:29.604Z,32.16
2018-04-10T14:23:59.244Z,34.79
2018-04-10T14:26:32.638Z,34.62
2018-04-10T14:29:00.363Z,33.59
2018-04-10T14:31:28.496Z,33.77
2018-04-10T14:34:01.215Z,34.56
2018-04-10T14:36:28.911Z,32.99
2018-04-10T14:39:01.333Z,31.78
2018-04-10T14:41:28.917Z,31.83
2018-04-10T14:43:59.369Z,30.75
2018-04-10T14:46:28.702Z,31.23
2018-04-10T14:48:56.682Z,32.23
2018-04-10T14:51:24.232Z,36.64
2018-04-10T14:53:58.657Z,39.52
2018-04-10T14:56:26.834Z,41.31
2018-04-10T14:58:58.136Z,41.65
2018-04-10T15:01:25.987Z,43.06
2018-04-10T15:03:54.036Z,43.60
2018-04-10T15:06:21.584Z,44.78
2018-04-10T15:08:49.137Z,45.57
2018-04-10T15:11:17.120Z,45.02
2018-04-10T15:13:44.975Z,44.93
2018-04-10T15:16:13.041Z,45.77
2018-04-10T15:18:40.750Z,45.39
2018-04-10T15:21:09.413Z,46.08
2018-04-10T15:23:37.506Z,46.58
2018-04-10T15:26:08.273Z,46.48
2018-04-10T15:28:36.063Z,46.11
2018-04-10T15:31:04.043Z,45.33
2018-04-10T15:33:34.895Z,44.36
2018-04-10T15:36:02.961Z,42.88
2018-04-10T15:38:30.729Z,40.46
2018-04-10T15:40:58.326Z,38.38
2018-04-10T15:43:25.923Z,37.47
2018-04-10T15:45:53.418Z,34.20
2018-04-10T15:48:20.971Z,30.94
2018-04-10T15:50:48.519Z,30.23
2018-04-10T15:53:16.098Z,31.66
2018-04-10T15:55:43.663Z,33.32
2018-04-10T15:58:11.384Z,34.46
2018-04-10T16:00:41.798Z,36.31
2018-04-10T16:03:09.746Z,37.39
2018-04-10T16:05:38.623Z,38.39
2018-04-10T16:08:06.147Z,39.09
2018-04-10T16:10:33.694Z,38.52
2018-04-10T16:13:01.245Z,39.36
2018-04-10T16:15:40.591Z,40.09
2018-04-10T16:18:08.163Z,40.36
2018-04-10T16:20:36.215Z,41.94
2018-04-10T16:23:03.852Z,44.25
2018-04-10T16:25:32.093Z,46.34
2018-04-10T16:27:59.641Z,47.21
2018-04-10T16:30:27.184Z,49.27
2018-04-10T16:32:54.706Z,49.23
2018-04-10T16:35:22.483Z,49.28
2018-04-10T16:37:50.031Z,49.68
2018-04-10T16:40:17.569Z,50.44
2018-04-10T16:42:45.174Z,51.40
2018-04-10T16:45:12.924Z,51.37
2018-04-10T16:47:40.480Z,51.58
2018-04-10T16:50:08.051Z,51.81
2018-04-10T16:52:36.008Z,52.53
2018-04-10T16:55:03.627Z,53.03
2018-04-10T16:57:32.631Z,53.41
2018-04-10T17:00:00.196Z,53.15
2018-04-10T17:02:29.394Z,52.84
2018-04-10T17:04:56.953Z,53.35
2018-04-10T17:07:24.841Z,53.59
2018-04-10T17:09:52.426Z,54.27
2018-04-10T17:12:20.048Z,55.69
2018-04-10T17:14:47.617Z,54.83
2018-04-10T17:17:15.132Z,55.13
2018-04-10T17:19:42.603Z,55.73
2018-04-10T17:22:32.072Z,55.81
2018-04-10T17:24:59.812Z,56.36
2018-04-10T17:27:27.320Z,56.22
2018-04-10T17:29:54.872Z,56.55
2018-04-10T17:32:22.591Z,56.74
2018-04-10T17:34:50.139Z,57.10
2018-04-10T17:37:17.679Z,57.68
2018-04-10T17:39:46.329Z,57.02
2018-04-10T17:42:13.872Z,57.98
2018-04-10T17:44:41.425Z,58.15
2018-04-10T17:47:09.034Z,58.48
2018-04-10T17:49:36.575Z,58.24
2018-04-10T17:52:04.116Z,58.67
2018-04-10T17:54:31.674Z,58.72
2018-04-10T17:56:59.194Z,59.39
2018-04-10T17:59:26.734Z,60.20
2018-04-10T18:01:54.299Z,60.62
2018-04-10T18:04:22.236Z,60.51
2018-04-10T18:06:51.226Z,60.23
2018-04-10T18:09:19.231Z,60.67
2018-04-10T18:11:48.820Z,60.76
2018-04-10T18:14:16.365Z,61.93
2018-04-10T18:16:45.511Z,62.65
2018-04-10T18:19:13.099Z,62.92
2018-04-10T18:21:43.381Z,63.37
2018-04-10T18:24:10.957Z,63.87
2018-04-10T18:26:38.535Z,63.93
2018-04-10T18:29:06.188Z,63.88
2018-04-10T18:31:33.912Z,64.59
2018-04-10T18:34:01.702Z,64.57
2018-04-10T18:36:31.152Z,65.08
2018-04-10T18:38:58.708Z,66.11
2018-04-10T18:41:26.721Z,66.37
2018-04-10T18:43:58.058Z,66.96
2018-04-10T18:46:28.505Z,67.02
2018-04-10T18:48:56.322Z,67.79
2018-04-10T18:51:25.488Z,68.00
2018-04-10T18:53:57.349Z,68.42
2018-04-10T18:56:27.141Z,68.53
2018-04-10T18:58:56.003Z,68.87
2018-04-10T19:01:24.331Z,69.10
2018-04-10T19:03:55.702Z,69.74
2018-04-10T19:06:23.325Z,69.91
2018-04-10T19:08:50.855Z,70.69
2018-04-10T19:11:18.440Z,71.14
2018-04-10T19:13:45.986Z,71.81
2018-04-10T19:16:13.812Z,72.36
2018-04-10T19:18:42.777Z,72.73
2018-04-10T19:21:11.253Z,72.52
2018-04-10T19:23:39.698Z,73.06
2018-04-10T19:26:07.251Z,72.97
2018-04-10T19:28:35.202Z,73.15
2018-04-10T19:31:03.042Z,73.56
2018-04-10T19:33:31.064Z,73.42
2018-04-10T19:35:58.600Z,73.84
2018-04-10T19:38:26.176Z,74.27
2018-04-10T19:40:53.755Z,74.25
2018-04-10T19:43:21.335Z,73.81
2018-04-10T19:45:48.885Z,73.96
2018-04-10T19:48:16.603Z,74.45
2018-04-10T19:50:46.100Z,74.70
2018-04-10T19:53:13.734Z,74.79
2018-04-10T19:55:41.322Z,75.19
2018-04-10T19:58:08.925Z,75.49
2018-04-10T20:00:36.681Z,76.27
2018-04-10T20:03:04.214Z,76.46
2018-04-10T20:05:31.840Z,77.28
2018-04-10T20:07:59.586Z,77.76
2018-04-10T20:10:27.160Z,78.30
2018-04-10T20:12:54.720Z,78.68
2018-04-10T20:15:22.309Z,78.98
2018-04-10T20:17:49.986Z,78.80
2018-04-10T20:20:17.525Z,78.77
2018-04-10T20:22:45.013Z,78.13
2018-04-10T20:25:13.040Z,77.99
2018-04-10T20:27:40.631Z,78.61
2018-04-10T20:30:08.207Z,78.19
2018-04-10T20:32:35.758Z,77.58
2018-04-10T20:35:03.352Z,77.43
2018-04-10T20:37:31.040Z,77.65
2018-04-10T20:39:58.708Z,77.85
2018-04-10T20:42:26.262Z,78.41
2018-04-10T20:44:53.844Z,77.25
2018-04-10T20:47:22.081Z,77.68
2018-04-10T20:49:49.636Z,77.52
2018-04-10T20:52:17.225Z,78.30
2018-04-10T20:54:44.844Z,78.79
2018-04-10T20:57:12.383Z,79.12
2018-04-10T20:59:40.289Z,79.39
2018-04-10T21:02:07.955Z,79.48
2018-04-10T21:04:35.571Z,79.45
2018-04-10T21:07:03.105Z,79.42
2018-04-10T21:09:30.693Z,79.35
2018-04-10T21:11:58.330Z,79.36
2018-04-10T21:14:25.865Z,79.33
2018-04-10T21:16:53.479Z,79.66
2018-04-10T21:19:21.311Z,79.56
2018-04-10T21:21:49.029Z,78.78
2018-04-10T21:24:17.228Z,79.28
2018-04-10T21:26:44.810Z,78.92
2018-04-10T21:29:12.424Z,78.93
2018-04-10T21:31:40.000Z,79.29
2018-04-10T21:34:07.675Z,79.57
2018-04-10T21:36:35.197Z,79.54
2018-04-10T21:39:02.741Z,80.07
2018-04-10T21:41:30.337Z,80.79
2018-04-10T21:43:57.879Z,81.42
2018-04-10T21:46:26.289Z,81.43
2018-04-10T21:48:53.798Z,81.42
2018-04-10T21:51:21.267Z,81.96
2018-04-10T21:53:51.433Z,81.58
2018-04-10T21:56:19.001Z,81.69
2018-04-10T21:58:46.806Z,81.38
2018-04-10T22:01:14.359Z,81.37
2018-04-10T22:03:42.626Z,81.12
2018-04-10T22:06:10.361Z,81.31
2018-04-10T22:08:37.935Z,80.80
2018-04-10T22:11:05.653Z,80.71
2018-04-10T22:13:33.335Z,80.45
2018-04-10T22:16:00.973Z,80.50
2018-04-10T22:18:30.244Z,79.82
2018-04-10T22:20:58.041Z,80.01
2018-04-10T22:23:25.678Z,80.40
2018-04-10T22:25:57.825Z,80.66
2018-04-10T22:28:27.333Z,81.15
2018-04-10T22:30:54.927Z,81.67
2018-04-10T22:33:24.589Z,81.63
2018-04-10T22:35:53.483Z,81.54
2018-04-10T22:38:23.322Z,81.72
2018-04-10T22:40:51.259Z,82.09
2018-04-10T22:43:18.823Z,82.62
2018-04-10T22:45:46.427Z,82.99
2018-04-10T22:48:14.028Z,83.31
2018-04-10T22:50:43.425Z,82.95
2018-04-10T22:53:30.665Z,82.38
2018-04-10T22:55:58.197Z,81.95
2018-04-10T22:58:26.272Z,81.66
2018-04-10T23:00:54.043Z,81.66
2018-04-10T23:03:21.607Z,82.03
2018-04-10T23:05:49.193Z,82.33
2018-04-10T23:08:16.787Z,81.92
2018-04-10T23:10:44.339Z,82.29
2018-04-10T23:13:12.270Z,82.25
2018-04-10T23:15:39.901Z,82.66
2018-04-10T23:18:07.454Z,83.41
2018-04-10T23:20:36.959Z,83.31
2018-04-10T23:23:04.581Z,83.20
2018-04-10T23:25:32.140Z,83.61
2018-04-10T23:27:59.723Z,83.51
2018-04-10T23:30:28.900Z,83.60
2018-04-10T23:32:56.478Z,83.75
2018-04-10T23:35:24.288Z,84.55
2018-04-10T23:37:51.883Z,84.12
2018-04-10T23:40:19.436Z,84.08
2018-04-10T23:42:47.033Z,83.53
2018-04-10T23:45:14.593Z,82.51
2018-04-10T23:47:43.946Z,83.22
2018-04-10T23:50:11.541Z,82.76
2018-04-10T23:52:39.091Z,82.77
2018-04-10T23:55:07.204Z,82.85
2018-04-10T23:57:34.837Z,83.64
